Time;durP1;ratioP1;P1;durP2;ratioP2;P2;SDS_P1;SDS_P2;PMS_P1;PMS_P2;Temp;Humidity;BMP_temperature;BMP_pressure;BME280_temperature;BME280_humidity;BME280_pressure;Samples;Min_cycle;Max_cycle;Signal;HPM_P1;HPM_P2
2021/12/22 00:02:08;;;;;;;21.10;11.27;;;-2.00;98.70;;;;;;5199962;23;20059;-80
2021/12/22 00:04:44;;;;;;;17.38;10.63;;;-2.10;99.00;;;;;;4952922;28;20043;-83
2021/12/22 00:07:13;;;;;;;19.35;11.00;;;-2.40;99.00;;;;;;4959776;29;20432;-79
2021/12/22 00:09:44;;;;;;;20.80;12.35;;;-2.20;99.50;;;;;;4942361;29;20107;-79
2021/12/22 00:12:15;;;;;;;20.38;12.25;;;-2.30;99.70;;;;;;4950692;29;20090;-79
2021/12/22 00:14:42;;;;;;;20.50;11.75;;;-2.30;99.90;;;;;;4958655;28;20449;-80
2021/12/22 00:17:09;;;;;;;20.70;11.38;;;-2.30;99.90;;;;;;4944410;29;20051;-81
2021/12/22 00:19:39;;;;;;;21.63;11.73;;;-2.20;99.90;;;;;;4959256;28;20081;-83
2021/12/22 00:22:07;;;;;;;21.00;11.80;;;-2.30;99.80;;;;;;4961442;28;20126;-82
2021/12/22 00:24:37;;;;;;;20.73;10.30;;;-2.30;99.90;;;;;;4946737;29;20114;-79
2021/12/22 00:27:08;;;;;;;19.88;10.85;;;-2.30;99.90;;;;;;4960315;28;20055;-81
2021/12/22 00:29:36;;;;;;;20.20;11.02;;;-2.30;99.90;;;;;;4947345;29;20055;-79
2021/12/22 00:32:13;;;;;;;19.20;11.18;;;-2.30;99.90;;;;;;4941059;29;20047;-81
2021/12/22 00:34:50;;;;;;;19.98;11.52;;;-2.30;99.90;;;;;;4945905;29;20057;-79
2021/12/22 00:37:25;;;;;;;21.83;11.90;;;-2.30;99.90;;;;;;4950263;29;20497;-79
2021/12/22 00:39:56;;;;;;;21.50;12.18;;;-2.20;99.90;;;;;;4954821;29;20149;-80
2021/12/22 00:42:25;;;;;;;22.67;11.68;;;-2.20;99.80;;;;;;4942868;29;20055;-79
2021/12/22 00:45:04;;;;;;;21.35;11.75;;;-2.30;99.60;;;;;;4950406;28;20065;-81
2021/12/22 00:47:33;;;;;;;20.83;11.88;;;-2.30;99.50;;;;;;4939114;29;20140;-80
2021/12/22 00:50:02;;;;;;;19.17;11.02;;;-2.30;99.30;;;;;;4937616;29;20051;-79
2021/12/22 00:52:31;;;;;;;21.42;11.80;;;-2.40;99.00;;;;;;4942308;28;20122;-80
2021/12/22 00:55:00;;;;;;;21.45;12.02;;;-2.40;98.70;;;;;;4944714;29;20062;-80
2021/12/22 00:57:35;;;;;;;19.65;12.25;;;-2.50;98.50;;;;;;4952691;28;20135;-78
2021/12/22 01:00:11;;;;;;;25.60;13.27;;;-2.60;98.50;;;;;;4944658;29;20047;-78
2021/12/22 01:02:39;;;;;;;21.58;12.10;;;-2.70;98.80;;;;;;4942198;28;20055;-82
2021/12/22 01:05:08;;;;;;;19.95;12.23;;;-2.80;99.50;;;;;;4947775;28;20082;-79
2021/12/22 01:07:36;;;;;;;25.33;13.23;;;-2.90;99.90;;;;;;4937537;29;20565;-81
2021/12/22 01:10:06;;;;;;;21.35;11.80;;;-2.90;99.90;;;;;;4952386;29;20051;-79
2021/12/22 01:12:38;;;;;;;22.13;12.48;;;-2.90;99.90;;;;;;4956096;29;20412;-80
2021/12/22 01:15:11;;;;;;;21.50;12.32;;;-2.90;99.90;;;;;;4956265;29;20066;-83
2021/12/22 01:17:44;;;;;;;22.58;12.20;;;-2.90;99.90;;;;;;4952808;28;20095;-79
2021/12/22 01:20:21;;;;;;;22.00;12.50;;;-2.80;99.90;;;;;;4941051;29;20110;-80
2021/12/22 01:22:50;;;;;;;22.40;12.80;;;-2.80;99.90;;;;;;4953641;29;20103;-85
2021/12/22 01:25:22;;;;;;;22.38;12.63;;;-2.70;99.90;;;;;;4941687;29;20059;-80
2021/12/22 01:27:54;;;;;;;23.77;12.25;;;-2.70;99.90;;;;;;4951590;28;20102;-79
2021/12/22 01:30:32;;;;;;;22.30;12.20;;;-2.70;99.90;;;;;;4937810;29;20461;-82
2021/12/22 01:33:03;;;;;;;19.33;11.40;;;-2.80;99.90;;;;;;4952619;29;20133;-79
2021/12/22 01:35:37;;;;;;;21.08;12.05;;;-2.80;99.90;;;;;;4939173;29;20110;-84
2021/12/22 01:38:06;;;;;;;20.63;10.95;;;-2.90;99.90;;;;;;4955409;29;20047;-78
2021/12/22 01:40:45;;;;;;;20.13;11.43;;;-2.90;99.90;;;;;;4959071;28;20071;-79
2021/12/22 01:43:18;;;;;;;23.85;11.57;;;-2.90;99.90;;;;;;4964769;29;20051;-79
2021/12/22 01:46:07;;;;;;;24.83;12.38;;;-2.90;99.90;;;;;;4962506;29;20107;-81
2021/12/22 01:51:37;;;;;;;20.92;11.20;;;-2.80;99.90;;;;;;4947505;29;20050;-78
2021/12/22 01:54:22;;;;;;;22.88;11.88;;;-2.80;99.90;;;;;;4931898;29;20134;-79
2021/12/22 01:57:01;;;;;;;20.25;11.60;;;-2.80;99.90;;;;;;4947086;29;20055;-81
2021/12/22 01:59:32;;;;;;;22.42;12.48;;;-2.80;99.90;;;;;;4952017;29;20126;-79
2021/12/22 02:02:02;;;;;;;21.45;11.38;;;-2.80;99.90;;;;;;4957884;29;20048;-81
2021/12/22 02:04:32;;;;;;;23.05;12.10;;;-2.80;99.90;;;;;;4935571;29;20067;-80
2021/12/22 02:06:59;;;;;;;19.77;11.82;;;-2.80;99.90;;;;;;4947076;29;20472;-78
2021/12/22 02:09:43;;;;;;;21.75;12.07;;;-2.80;99.80;;;;;;4952681;29;20488;-79
2021/12/22 02:12:14;;;;;;;22.13;12.30;;;-2.80;99.70;;;;;;4962153;29;20051;-80
2021/12/22 02:14:46;;;;;;;23.33;11.60;;;-2.80;99.90;;;;;;4955916;29;20079;-79
2021/12/22 02:17:20;;;;;;;22.55;12.07;;;-2.90;99.10;;;;;;4962890;29;20114;-79
2021/12/22 02:19:51;;;;;;;19.75;11.52;;;-2.90;99.10;;;;;;4961568;29;20062;-79
2021/12/22 02:22:18;;;;;;;21.15;11.60;;;-2.90;99.60;;;;;;4959497;29;20051;-82
2021/12/22 02:24:58;;;;;;;22.80;11.43;;;-2.90;99.40;;;;;;4968386;29;20055;-81
2021/12/22 02:27:31;;;;;;;21.17;12.18;;;-3.00;99.50;;;;;;4955969;29;20059;-80
2021/12/22 02:30:04;;;;;;;21.75;12.23;;;-3.00;99.50;;;;;;4964820;29;20051;-79
2021/12/22 02:35:28;;;;;;;21.80;11.10;;;-3.00;99.40;;;;;;4961298;28;20238;-79
2021/12/22 02:37:58;;;;;;;21.00;12.05;;;-3.00;99.30;;;;;;4954834;29;20075;-78
2021/12/22 02:40:37;;;;;;;20.88;11.57;;;-3.00;99.10;;;;;;4964683;29;20074;-79
2021/12/22 02:43:09;;;;;;;18.13;11.07;;;-3.00;98.70;;;;;;4967446;29;20059;-80
2021/12/22 02:45:37;;;;;;;19.25;11.13;;;-3.10;98.60;;;;;;4952690;29;20055;-80
2021/12/22 02:48:10;;;;;;;18.92;10.88;;;-3.20;98.60;;;;;;4959494;29;20058;-79
2021/12/22 02:50:55;;;;;;;19.13;11.23;;;-3.20;98.90;;;;;;4956055;29;20079;-80
2021/12/22 02:53:28;;;;;;;20.17;11.48;;;-3.20;99.00;;;;;;4953059;29;20047;-79
2021/12/22 02:56:01;;;;;;;19.67;11.48;;;-3.20;98.70;;;;;;4960669;29;20066;-79
2021/12/22 02:58:36;;;;;;;21.08;11.20;;;-3.30;98.60;;;;;;4951589;29;20083;-80
2021/12/22 03:01:27;;;;;;;20.08;11.77;;;-3.30;98.70;;;;;;4951180;29;20486;-80
2021/12/22 03:03:58;;;;;;;22.35;11.65;;;-3.30;98.90;;;;;;4952063;29;20081;-82
2021/12/22 03:06:34;;;;;;;20.92;11.80;;;-3.40;98.80;;;;;;4957123;29;20055;-79
2021/12/22 03:09:01;;;;;;;21.35;11.75;;;-3.40;99.30;;;;;;4964342;29;20089;-80
2021/12/22 03:11:33;;;;;;;20.97;11.93;;;-3.40;99.30;;;;;;4964777;29;20631;-81
2021/12/22 03:14:03;;;;;;;21.13;11.82;;;-3.50;99.50;;;;;;4968299;29;20146;-81
2021/12/22 03:16:34;;;;;;;23.67;12.40;;;-3.50;99.70;;;;;;4967219;28;20055;-78
2021/12/22 03:19:07;;;;;;;21.27;12.67;;;-3.60;99.80;;;;;;4958655;29;20062;-81
2021/12/22 03:21:40;;;;;;;20.13;12.13;;;-3.60;99.90;;;;;;4950862;29;20057;-79
2021/12/22 03:24:13;;;;;;;22.50;12.00;;;-3.60;99.90;;;;;;4967898;29;20059;-82
2021/12/22 03:26:44;;;;;;;21.83;11.97;;;-3.60;99.90;;;;;;4965572;29;20070;-81
2021/12/22 03:29:18;;;;;;;21.60;12.00;;;-3.50;99.90;;;;;;4931485;29;20044;-80
2021/12/22 03:31:52;;;;;;;23.38;12.13;;;-3.50;99.90;;;;;;4961479;29;20435;-78
2021/12/22 03:34:21;;;;;;;22.93;12.33;;;-3.60;99.90;;;;;;4954560;29;20083;-79
2021/12/22 03:37:00;;;;;;;22.97;12.47;;;-3.50;99.90;;;;;;4948136;29;20055;-78
2021/12/22 03:39:42;;;;;;;21.08;11.98;;;-3.50;99.90;;;;;;4962625;29;20126;-79
2021/12/22 03:42:14;;;;;;;24.48;11.98;;;-3.50;99.90;;;;;;4964064;28;20055;-79
2021/12/22 03:44:43;;;;;;;23.02;12.25;;;-3.30;99.90;;;;;;4945988;29;20051;-78
2021/12/22 03:47:16;;;;;;;22.93;12.23;;;-3.40;99.90;;;;;;4956598;29;20055;-80
2021/12/22 03:49:51;;;;;;;24.58;12.60;;;-3.30;99.90;;;;;;4961664;28;20047;-83
2021/12/22 03:52:24;;;;;;;24.88;12.25;;;-3.50;99.90;;;;;;4951326;29;20058;-85
2021/12/22 03:54:58;;;;;;;23.70;12.63;;;-3.50;99.70;;;;;;4966465;29;20051;-83
2021/12/22 03:57:26;;;;;;;22.17;12.18;;;-3.50;99.90;;;;;;4952878;29;20056;-82
2021/12/22 04:00:02;;;;;;;22.25;12.27;;;-3.50;99.90;;;;;;4952308;29;20078;-80
2021/12/22 04:02:32;;;;;;;22.70;12.60;;;-3.60;99.90;;;;;;4953431;29;20043;-81
2021/12/22 04:05:00;;;;;;;25.08;13.10;;;-3.60;99.90;;;;;;4960758;29;20051;-80
2021/12/22 04:07:31;;;;;;;20.70;12.53;;;-3.60;99.70;;;;;;4967459;28;20067;-80
2021/12/22 04:10:08;;;;;;;22.00;12.63;;;-3.70;98.90;;;;;;4961330;29;20054;-84
2021/12/22 04:12:36;;;;;;;22.50;11.70;;;-3.70;99.60;;;;;;4959697;29;20047;-82
2021/12/22 04:15:03;;;;;;;23.03;12.10;;;-3.80;99.80;;;;;;4949554;29;20074;-80
2021/12/22 04:17:38;;;;;;;22.10;12.57;;;-3.90;98.90;;;;;;4955128;29;20079;-85
2021/12/22 04:20:07;;;;;;;22.00;12.13;;;-3.90;99.50;;;;;;4963479;29;20047;-79
2021/12/22 04:22:37;;;;;;;19.10;11.53;;;-4.00;99.90;;;;;;4960787;29;20083;-80
2021/12/22 04:25:08;;;;;;;21.77;12.30;;;-4.00;99.70;;;;;;4949205;29;20058;-80
2021/12/22 04:27:37;;;;;;;24.20;12.57;;;-4.00;99.90;;;;;;4965149;29;20501;-83
2021/12/22 04:30:12;;;;;;;23.47;12.57;;;-3.90;99.90;;;;;;4958969;29;20111;-84
2021/12/22 04:32:42;;;;;;;20.87;11.50;;;-3.90;99.90;;;;;;4961522;29;20051;-84
2021/12/22 04:35:12;;;;;;;22.30;12.17;;;-3.90;99.90;;;;;;4954702;29;20119;-84
2021/12/22 04:37:44;;;;;;;22.97;12.57;;;-3.90;99.90;;;;;;4962577;28;20075;-90
2021/12/22 04:40:16;;;;;;;20.93;12.20;;;-3.90;99.90;;;;;;4966901;29;20437;-89
2021/12/22 04:42:44;;;;;;;24.10;13.30;;;-3.80;99.90;;;;;;4956241;29;20059;-82
2021/12/22 04:45:12;;;;;;;20.53;11.97;;;-3.80;99.90;;;;;;4965489;29;20071;-83
2021/12/22 04:47:40;;;;;;;22.77;11.93;;;-3.80;99.90;;;;;;4951663;28;20067;-83
2021/12/22 04:50:16;;;;;;;22.05;12.68;;;-3.80;99.90;;;;;;4962829;29;20082;-81
2021/12/22 04:52:59;;;;;;;23.17;12.55;;;-3.80;99.90;;;;;;4961357;29;20051;-86
2021/12/22 04:55:29;;;;;;;22.00;11.82;;;-3.70;99.90;;;;;;4959167;29;20047;-86
2021/12/22 04:57:58;;;;;;;22.17;11.95;;;-3.70;99.90;;;;;;4968163;23;20188;-76
2021/12/22 05:00:28;;;;;;;22.60;12.13;;;-3.70;99.80;;;;;;4959154;28;20085;-78
2021/12/22 05:02:56;;;;;;;22.90;12.57;;;-3.70;99.60;;;;;;4957788;28;20058;-78
2021/12/22 05:05:23;;;;;;;21.53;12.20;;;-3.70;99.30;;;;;;4982140;28;20130;-78
2021/12/22 05:07:52;;;;;;;25.13;12.03;;;-3.70;99.00;;;;;;4974086;28;20127;-78
2021/12/22 05:10:21;;;;;;;22.63;12.23;;;-3.80;98.90;;;;;;4971486;28;20508;-78
2021/12/22 05:12:48;;;;;;;20.40;11.40;;;-3.80;98.50;;;;;;4970623;28;20046;-77
2021/12/22 05:15:19;;;;;;;23.42;11.70;;;-3.90;98.20;;;;;;4970436;28;20051;-79
2021/12/22 05:18:20;;;;;;;20.63;11.67;;;-3.90;98.20;;;;;;4975133;28;20074;-79
2021/12/22 05:20:47;;;;;;;22.08;11.52;;;-4.00;98.30;;;;;;4967989;28;20059;-80
2021/12/22 05:23:16;;;;;;;22.50;12.07;;;-4.00;98.40;;;;;;4974692;28;20111;-77
2021/12/22 05:25:44;;;;;;;20.93;11.77;;;-4.00;98.30;;;;;;4961704;28;20047;-76
2021/12/22 05:28:11;;;;;;;19.45;11.20;;;-4.10;98.30;;;;;;4974631;28;20187;-77
2021/12/22 05:30:38;;;;;;;20.07;11.13;;;-4.10;98.50;;;;;;4963491;29;20058;-78
2021/12/22 05:33:05;;;;;;;20.23;11.50;;;-4.20;98.50;;;;;;4965308;29;20053;-78
2021/12/22 05:35:32;;;;;;;20.43;11.53;;;-4.20;98.70;;;;;;4968188;29;20047;-77
2021/12/22 05:37:59;;;;;;;22.87;11.77;;;-4.20;98.40;;;;;;4968367;29;20078;-78
2021/12/22 05:40:28;;;;;;;22.10;11.80;;;-4.30;98.00;;;;;;4967922;29;20131;-78
2021/12/22 05:42:57;;;;;;;22.77;12.57;;;-4.40;98.50;;;;;;4965488;29;20061;-77
2021/12/22 05:45:25;;;;;;;22.63;12.13;;;-4.40;99.20;;;;;;4965790;29;20054;-77
2021/12/22 05:47:53;;;;;;;21.70;11.93;;;-4.50;99.00;;;;;;4966473;29;20055;-77
2021/12/22 05:50:21;;;;;;;24.60;12.73;;;-4.50;99.20;;;;;;4964921;29;20098;-77
2021/12/22 05:52:48;;;;;;;24.83;13.90;;;-4.60;99.90;;;;;;4966336;29;20051;-77
2021/12/22 05:55:16;;;;;;;28.50;14.83;;;-4.60;99.90;;;;;;4965411;29;20106;-77
2021/12/22 05:57:45;;;;;;;27.37;13.93;;;-4.60;99.90;;;;;;4963985;29;20051;-77
2021/12/22 06:00:13;;;;;;;26.43;13.50;;;-4.60;99.90;;;;;;4965837;28;20115;-78
2021/12/22 06:02:40;;;;;;;25.77;13.57;;;-4.60;99.90;;;;;;4947445;29;20111;-78
2021/12/22 06:05:09;;;;;;;24.60;12.67;;;-4.60;99.90;;;;;;4947218;29;20155;-78
2021/12/22 06:07:36;;;;;;;25.17;13.13;;;-4.60;99.90;;;;;;4946991;29;20126;-78
2021/12/22 06:10:04;;;;;;;23.17;12.97;;;-4.60;99.90;;;;;;4948533;29;20116;-78
2021/12/22 06:12:31;;;;;;;22.90;12.50;;;-4.60;99.90;;;;;;4946384;29;20122;-78
2021/12/22 06:15:00;;;;;;;25.13;13.20;;;-4.70;99.90;;;;;;4947169;29;20052;-78
2021/12/22 06:17:27;;;;;;;27.33;13.53;;;-4.70;99.90;;;;;;4947271;29;20105;-79
2021/12/22 06:19:54;;;;;;;24.17;13.20;;;-4.70;99.90;;;;;;4945433;29;20087;-78
2021/12/22 06:22:21;;;;;;;22.23;11.90;;;-4.60;99.90;;;;;;4946061;29;20067;-77
2021/12/22 06:24:49;;;;;;;23.03;12.57;;;-4.60;99.90;;;;;;4951071;29;20046;-77
2021/12/22 06:27:16;;;;;;;24.77;12.90;;;-4.60;99.90;;;;;;4965114;29;20075;-77
2021/12/22 06:29:43;;;;;;;25.47;12.90;;;-4.60;99.90;;;;;;4965349;29;20138;-78
2021/12/22 06:32:11;;;;;;;25.67;12.77;;;-4.50;99.90;;;;;;4967375;29;20527;-78
2021/12/22 06:34:39;;;;;;;24.57;12.13;;;-4.50;99.90;;;;;;4966561;29;20154;-78
2021/12/22 06:37:06;;;;;;;23.70;12.83;;;-4.50;99.90;;;;;;4965366;29;20110;-78
2021/12/22 06:39:34;;;;;;;21.47;12.37;;;-4.50;99.90;;;;;;4965349;29;20115;-78
2021/12/22 06:42:01;;;;;;;24.27;12.47;;;-4.50;99.90;;;;;;4964395;29;20053;-79
2021/12/22 06:44:30;;;;;;;24.93;12.73;;;-4.50;99.90;;;;;;4964239;29;20091;-78
2021/12/22 06:46:57;;;;;;;24.93;13.27;;;-4.40;99.90;;;;;;4964869;29;20054;-77
2021/12/22 06:49:25;;;;;;;28.27;13.77;;;-4.40;99.90;;;;;;4964955;29;20099;-78
2021/12/22 06:51:53;;;;;;;25.67;12.87;;;-4.40;99.90;;;;;;4964345;29;20119;-78
2021/12/22 06:54:20;;;;;;;22.93;12.47;;;-4.40;99.90;;;;;;4963936;29;20107;-77
2021/12/22 06:56:47;;;;;;;21.83;12.20;;;-4.40;99.90;;;;;;4965387;29;20136;-77
2021/12/22 06:59:15;;;;;;;23.50;12.47;;;-4.40;99.60;;;;;;4965275;28;20055;-77
2021/12/22 07:01:42;;;;;;;23.70;12.63;;;-4.40;99.40;;;;;;4965594;29;20051;-77
2021/12/22 07:04:09;;;;;;;21.93;12.30;;;-4.50;99.40;;;;;;4964543;29;20103;-76
2021/12/22 07:06:37;;;;;;;27.30;13.50;;;-4.50;99.60;;;;;;4961973;28;20079;-78
2021/12/22 07:09:07;;;;;;;22.50;11.77;;;-4.50;99.30;;;;;;4963734;29;20090;-76
2021/12/22 07:11:37;;;;;;;24.27;11.87;;;-4.60;98.60;;;;;;4964584;29;20134;-78
2021/12/22 07:14:08;;;;;;;26.33;12.27;;;-4.70;98.40;;;;;;4964476;29;20048;-80
2021/12/22 07:16:35;;;;;;;21.47;11.30;;;-4.90;98.40;;;;;;4963835;29;20094;-78
2021/12/22 07:19:03;;;;;;;22.00;11.70;;;-5.00;98.80;;;;;;4962184;29;20047;-78
2021/12/22 07:21:31;;;;;;;23.30;12.33;;;-5.10;99.30;;;;;;4961530;29;20150;-79
2021/12/22 07:23:59;;;;;;;26.20;13.47;;;-5.20;99.90;;;;;;4963512;28;20052;-80
2021/12/22 07:26:27;;;;;;;26.90;14.20;;;-5.20;99.90;;;;;;4967112;29;20071;-77
2021/12/22 07:28:54;;;;;;;25.90;14.00;;;-5.20;99.90;;;;;;4968482;29;20516;-78
2021/12/22 07:31:21;;;;;;;26.10;13.73;;;-5.20;99.90;;;;;;4967617;29;20047;-78
2021/12/22 07:33:53;;;;;;;28.43;13.93;;;-5.20;99.90;;;;;;4967986;29;20122;-78
2021/12/22 07:36:20;;;;;;;25.83;13.57;;;-5.20;99.90;;;;;;4965950;29;20053;-78
2021/12/22 07:38:58;;;;;;;26.23;13.17;;;-5.10;99.90;;;;;;4969052;29;20043;-78
2021/12/22 07:41:27;;;;;;;25.80;14.10;;;-5.10;99.90;;;;;;4970172;29;20114;-78
2021/12/22 07:43:55;;;;;;;29.13;13.80;;;-5.00;99.90;;;;;;4970555;29;20103;-77
2021/12/22 07:46:22;;;;;;;26.13;13.77;;;-5.00;99.90;;;;;;4970642;29;20134;-78
2021/12/22 07:48:49;;;;;;;29.03;14.43;;;-5.00;99.90;;;;;;4967601;29;20051;-79
2021/12/22 07:51:16;;;;;;;27.67;13.97;;;-4.90;99.90;;;;;;4966849;29;20102;-79
2021/12/22 07:53:43;;;;;;;25.63;13.70;;;-4.80;99.90;;;;;;4968788;29;20047;-77
2021/12/22 07:56:11;;;;;;;27.17;13.47;;;-4.80;99.90;;;;;;4969487;29;20107;-77
2021/12/22 07:58:40;;;;;;;25.03;13.50;;;-4.70;99.90;;;;;;4968300;29;20471;-78
2021/12/22 08:01:07;;;;;;;25.43;13.53;;;-4.70;99.90;;;;;;4968169;29;20107;-79
2021/12/22 08:03:34;;;;;;;27.10;13.80;;;-4.70;99.90;;;;;;4968401;29;20141;-79
2021/12/22 08:06:01;;;;;;;27.87;14.53;;;-4.70;99.90;;;;;;4966842;29;20158;-79
2021/12/22 08:08:28;;;;;;;28.73;15.47;;;-4.70;99.90;;;;;;4965841;29;20111;-79
2021/12/22 08:10:55;;;;;;;28.43;15.40;;;-4.80;99.90;;;;;;4965472;29;20051;-77
2021/12/22 08:13:24;;;;;;;30.90;14.90;;;-4.90;99.90;;;;;;4966344;29;20054;-78
2021/12/22 08:15:53;;;;;;;28.47;14.00;;;-4.90;99.90;;;;;;4965767;29;20115;-78
2021/12/22 08:18:20;;;;;;;24.80;13.43;;;-4.90;99.90;;;;;;4966337;29;20130;-79
2021/12/22 08:20:47;;;;;;;26.13;14.00;;;-4.90;99.90;;;;;;4962430;29;20047;-78
2021/12/22 08:23:16;;;;;;;27.43;13.00;;;-4.80;99.90;;;;;;4963691;29;20107;-78
2021/12/22 08:25:43;;;;;;;25.07;13.13;;;-4.70;99.90;;;;;;4965576;29;20485;-78
2021/12/22 08:28:10;;;;;;;25.20;13.37;;;-4.60;99.90;;;;;;4966175;29;20115;-78
2021/12/22 08:30:39;;;;;;;27.50;14.20;;;-4.60;99.90;;;;;;4964639;29;20075;-78
2021/12/22 08:33:15;;;;;;;26.77;14.00;;;-4.40;99.90;;;;;;4966251;29;20102;-79
2021/12/22 08:41:11;;;;;;;24.27;14.00;;;-4.30;99.90;;;;;;4965701;29;20057;-79
2021/12/22 08:43:38;;;;;;;30.53;14.80;;;-4.20;99.90;;;;;;4965933;29;20118;-79
2021/12/22 08:46:05;;;;;;;29.33;14.73;;;-4.10;99.90;;;;;;4963784;29;20070;-79
2021/12/22 08:48:34;;;;;;;27.23;14.67;;;-4.10;99.90;;;;;;4964582;29;20111;-77
2021/12/22 08:51:01;;;;;;;27.83;14.97;;;-4.00;99.90;;;;;;4965395;29;20047;-77
2021/12/22 08:53:28;;;;;;;27.77;14.33;;;-3.90;99.90;;;;;;4964687;29;20549;-79
2021/12/22 08:55:57;;;;;;;25.87;14.47;;;-3.80;99.90;;;;;;4966040;29;20149;-78
2021/12/22 08:58:24;;;;;;;26.27;14.43;;;-3.80;99.90;;;;;;4965743;29;20047;-79
2021/12/22 09:00:51;;;;;;;26.25;14.73;;;-3.60;99.90;;;;;;4964963;29;20126;-79
2021/12/22 09:03:18;;;;;;;26.70;15.27;;;-3.60;99.90;;;;;;4965317;29;20044;-78
2021/12/22 09:05:47;;;;;;;28.73;14.20;;;-3.50;99.90;;;;;;4963946;29;20047;-79
2021/12/22 09:08:14;;;;;;;28.97;14.83;;;-3.40;99.90;;;;;;4965673;29;20126;-78
2021/12/22 09:10:41;;;;;;;27.92;14.60;;;-3.40;99.90;;;;;;4967511;29;20070;-79
2021/12/22 09:13:08;;;;;;;29.52;15.45;;;-3.30;99.90;;;;;;4966342;29;20087;-79
2021/12/22 09:15:35;;;;;;;28.17;15.13;;;-3.20;99.90;;;;;;4962768;29;20086;-78
2021/12/22 09:18:02;;;;;;;26.70;14.52;;;-3.20;99.90;;;;;;4959824;29;20054;-76
2021/12/22 09:20:29;;;;;;;25.00;14.70;;;-3.10;99.90;;;;;;4961112;29;20058;-78
2021/12/22 09:22:58;;;;;;;28.08;15.15;;;-3.10;99.90;;;;;;4966875;29;20043;-78
2021/12/22 09:25:26;;;;;;;27.85;14.88;;;-3.00;99.90;;;;;;4963235;29;20504;-77
2021/12/22 09:27:53;;;;;;;27.42;15.35;;;-3.00;99.90;;;;;;4962666;29;20517;-78
2021/12/22 09:30:20;;;;;;;28.90;15.27;;;-2.90;99.90;;;;;;4963942;29;20055;-77
2021/12/22 09:32:47;;;;;;;30.85;15.75;;;-2.90;99.90;;;;;;4965047;29;20175;-78
2021/12/22 09:35:14;;;;;;;31.15;16.48;;;-2.90;99.90;;;;;;4964937;29;20079;-77
2021/12/22 09:37:41;;;;;;;30.77;15.10;;;-2.80;99.90;;;;;;4961816;29;20474;-77
2021/12/22 09:40:12;;;;;;;30.10;16.83;;;-2.80;99.90;;;;;;4963640;29;20460;-77
2021/12/22 09:42:39;;;;;;;31.23;16.38;;;-2.80;99.90;;;;;;4963156;29;20106;-77
2021/12/22 09:45:07;;;;;;;28.27;15.90;;;-2.80;99.90;;;;;;4963750;29;20678;-77
2021/12/22 09:47:49;;;;;;;31.55;16.77;;;-2.80;99.90;;;;;;4962139;28;20051;-78
2021/12/22 09:50:34;;;;;;;32.20;16.55;;;-2.70;99.90;;;;;;4963664;29;20070;-79
2021/12/22 09:53:01;;;;;;;32.70;16.77;;;-2.70;99.90;;;;;;4963010;29;20059;-78
2021/12/22 09:55:34;;;;;;;32.13;17.48;;;-2.70;99.90;;;;;;4962263;29;20130;-79
2021/12/22 09:58:02;;;;;;;31.38;17.05;;;-2.60;99.90;;;;;;4963191;29;20138;-78
2021/12/22 10:00:30;;;;;;;32.80;16.38;;;-2.60;99.90;;;;;;4961305;29;20145;-77
2021/12/22 10:02:57;;;;;;;29.70;16.65;;;-2.50;99.90;;;;;;4961328;29;20051;-79
2021/12/22 10:05:24;;;;;;;30.00;16.33;;;-2.50;99.90;;;;;;4959620;29;20057;-78
2021/12/22 10:08:06;;;;;;;30.48;17.08;;;-2.50;99.90;;;;;;4961144;29;20138;-78
2021/12/22 10:10:36;;;;;;;32.90;18.02;;;-2.40;99.90;;;;;;4960964;29;20493;-79
2021/12/22 10:13:09;;;;;;;32.28;17.13;;;-2.30;99.90;;;;;;4960151;29;20055;-78
2021/12/22 10:15:37;;;;;;;30.60;16.73;;;-2.30;99.90;;;;;;4961949;29;20110;-78
2021/12/22 10:18:14;;;;;;;29.58;16.52;;;-2.20;99.90;;;;;;4961002;29;20048;-79
2021/12/22 10:20:43;;;;;;;29.67;17.27;;;-2.20;99.90;;;;;;4959451;29;20087;-78
2021/12/22 10:23:25;;;;;;;29.77;16.60;;;-2.10;99.90;;;;;;4956650;29;20055;-78
2021/12/22 10:25:57;;;;;;;33.10;16.92;;;-2.00;99.90;;;;;;4958416;29;20051;-78
2021/12/22 10:28:28;;;;;;;30.00;16.65;;;-2.00;99.90;;;;;;4958996;29;20048;-78
2021/12/22 10:30:58;;;;;;;31.67;17.35;;;-1.80;99.90;;;;;;4953896;29;20155;-78
2021/12/22 10:33:28;;;;;;;32.17;16.70;;;-1.70;99.90;;;;;;4953221;29;20051;-78
2021/12/22 10:35:59;;;;;;;30.05;16.48;;;-1.70;99.90;;;;;;4953474;29;20050;-78
2021/12/22 10:38:29;;;;;;;30.50;17.00;;;-1.60;99.90;;;;;;4953925;28;20110;-78
2021/12/22 10:41:01;;;;;;;29.15;16.90;;;-1.50;99.90;;;;;;4953069;29;20051;-78
2021/12/22 10:43:31;;;;;;;29.58;15.75;;;-1.40;99.90;;;;;;4952164;29;20387;-78
2021/12/22 10:46:01;;;;;;;31.38;16.23;;;-1.30;99.90;;;;;;4952343;29;20504;-79
2021/12/22 10:51:20;;;;;;;29.13;16.25;;;-1.20;99.90;;;;;;4952385;29;20216;-78
2021/12/22 10:53:50;;;;;;;31.63;16.88;;;-1.10;99.90;;;;;;4953172;29;20051;-78
2021/12/22 10:56:29;;;;;;;29.52;15.73;;;-1.00;99.90;;;;;;4953018;29;20055;-78
2021/12/22 10:59:06;;;;;;;28.90;15.45;;;-1.00;99.90;;;;;;4952906;28;20059;-78
2021/12/22 11:01:35;;;;;;;28.63;16.15;;;-0.90;99.90;;;;;;4956251;29;20134;-77
2021/12/22 11:04:06;;;;;;;29.70;15.15;;;-0.90;99.90;;;;;;4955796;29;20047;-78
2021/12/22 11:06:35;;;;;;;27.83;15.68;;;-0.80;99.90;;;;;;4955719;29;20335;-78
2021/12/22 11:09:10;;;;;;;29.42;15.60;;;-0.70;99.90;;;;;;4955400;29;20053;-78
2021/12/22 11:11:40;;;;;;;28.52;16.05;;;-0.70;99.90;;;;;;4955513;29;20802;-77
2021/12/22 11:14:15;;;;;;;27.95;15.15;;;-0.60;99.90;;;;;;4955033;29;20511;-78
2021/12/22 11:17:02;;;;;;;25.52;15.13;;;-0.50;99.90;;;;;;4955407;29;20632;-78
2021/12/22 11:19:33;;;;;;;26.90;14.88;;;-0.40;99.90;;;;;;4955471;29;20508;-78
2021/12/22 11:22:11;;;;;;;27.25;14.32;;;-0.30;99.90;;;;;;4954984;29;20420;-77
2021/12/22 11:24:43;;;;;;;25.67;14.30;;;-0.30;99.70;;;;;;4955543;29;20062;-77
2021/12/22 11:27:15;;;;;;;25.73;14.07;;;-0.20;99.50;;;;;;4955559;29;20139;-77
2021/12/22 11:29:46;;;;;;;27.17;14.10;;;-0.10;99.30;;;;;;4955399;29;20054;-77
2021/12/22 11:32:17;;;;;;;27.50;14.40;;;0.00;99.20;;;;;;4955135;29;20059;-76
2021/12/22 11:34:51;;;;;;;24.42;14.23;;;0.00;99.20;;;;;;4954597;29;20062;-77
2021/12/22 11:37:19;;;;;;;29.15;14.43;;;0.10;99.30;;;;;;4954994;29;20405;-77
2021/12/22 11:39:47;;;;;;;22.77;13.77;;;0.20;98.70;;;;;;4955233;29;20061;-76
2021/12/22 11:42:17;;;;;;;26.90;15.20;;;0.20;98.70;;;;;;4955522;29;20049;-76
2021/12/22 11:44:48;;;;;;;24.60;14.60;;;0.30;99.00;;;;;;4954840;29;20054;-78
2021/12/22 11:47:17;;;;;;;24.75;14.55;;;0.40;98.70;;;;;;4954006;29;20053;-78
2021/12/22 11:49:55;;;;;;;26.88;14.70;;;0.50;98.60;;;;;;4954856;29;20512;-79
2021/12/22 11:52:36;;;;;;;24.52;14.35;;;0.60;98.30;;;;;;4954706;29;20058;-78
2021/12/22 11:55:11;;;;;;;25.90;14.32;;;0.70;98.00;;;;;;4954510;29;20058;-78
2021/12/22 11:57:39;;;;;;;;;;;0.80;97.90;;;;;;4955152;29;20055;-78
2021/12/22 12:00:26;;;;;;;24.58;14.10;;;0.90;97.70;;;;;;4916502;29;19929;-76
2021/12/22 12:02:55;;;;;;;23.00;13.52;;;1.10;97.60;;;;;;4916090;29;20144;-77
2021/12/22 12:05:25;;;;;;;27.33;15.45;;;1.10;97.60;;;;;;4915967;29;20123;-77
2021/12/22 12:07:55;;;;;;;23.45;13.98;;;1.20;97.20;;;;;;4916594;29;20052;-77
2021/12/22 12:10:44;;;;;;;23.52;13.55;;;1.30;96.60;;;;;;4915479;29;20057;-76
2021/12/22 12:13:49;;;;;;;22.95;13.43;;;1.40;96.20;;;;;;4916243;29;20091;-77
2021/12/22 12:22:36;;;;;;;24.25;13.52;;;1.70;94.90;;;;;;4895012;29;20061;-78
2021/12/22 12:25:11;;;;;;;24.05;13.43;;;1.80;95.00;;;;;;4895105;29;20072;-77
2021/12/22 12:27:44;;;;;;;;;;;1.90;94.70;;;;;;4906454;29;20099;-77
2021/12/22 12:30:20;;;;;;;23.40;14.15;;;2.00;94.10;;;;;;4916121;29;19923;-77
2021/12/22 12:33:23;;;;;;;25.45;14.02;;;2.20;94.00;;;;;;4916163;29;20132;-77
2021/12/22 12:36:11;;;;;;;23.35;14.23;;;2.30;94.00;;;;;;4915859;29;20462;-77
2021/12/22 12:38:49;;;;;;;25.67;14.25;;;2.60;94.10;;;;;;4916161;29;20312;-78
2021/12/22 12:41:23;;;;;;;23.10;14.68;;;2.80;94.30;;;;;;4916151;29;20060;-76
2021/12/22 12:44:15;;;;;;;23.08;13.75;;;3.10;93.60;;;;;;4915921;29;20085;-78
2021/12/22 12:46:50;;;;;;;23.23;14.20;;;3.40;93.30;;;;;;4915404;29;20052;-77
2021/12/22 12:49:37;;;;;;;;;;;3.60;92.60;;;;;;4916510;29;20117;-77
2021/12/22 12:52:28;;;;;;;25.00;14.10;;;3.90;92.30;;;;;;4915469;29;20341;-77
2021/12/22 12:55:15;;;;;;;21.73;13.70;;;4.30;91.30;;;;;;4915635;29;20054;-80
2021/12/22 12:57:42;;;;;;;22.30;14.40;;;5.00;91.50;;;;;;4915916;29;20083;-78
2021/12/22 13:00:25;;;;;;;21.00;13.98;;;5.70;89.40;;;;;;4953610;29;20125;-79
2021/12/22 13:03:06;;;;;;;22.08;14.02;;;7.10;83.90;;;;;;4952206;29;20062;-79
2021/12/22 13:05:34;;;;;;;19.95;13.00;;;9.00;74.70;;;;;;4953912;29;20408;-79
2021/12/22 13:08:10;;;;;;;17.63;12.55;;;13.00;55.50;;;;;;4953844;29;20051;-77
2021/12/22 13:10:39;;;;;;;18.40;13.45;;;13.10;55.50;;;;;;4953411;29;20055;-76